createdAt,value
2022-08-19T00:00:51.808Z,25.80
2022-08-19T00:03:19.025Z,25.80
2022-08-19T00:05:46.506Z,25.79
2022-08-19T00:08:13.591Z,25.77
2022-08-19T00:10:40.687Z,25.77
2022-08-19T00:13:07.803Z,25.77
2022-08-19T00:15:34.902Z,25.77
2022-08-19T00:18:01.958Z,25.76
2022-08-19T00:20:29.030Z,25.75
2022-08-19T00:22:56.530Z,25.75
2022-08-19T00:25:30.297Z,25.74
2022-08-19T00:27:57.853Z,25.73
2022-08-19T00:30:25.085Z,25.72
2022-08-19T00:32:52.273Z,25.71
2022-08-19T00:35:19.566Z,25.72
2022-08-19T00:37:46.660Z,25.72
2022-08-19T00:40:13.876Z,25.71
2022-08-19T00:42:41.042Z,25.68
2022-08-19T00:45:08.087Z,25.68
2022-08-19T00:47:35.132Z,25.68
2022-08-19T00:50:02.216Z,25.67
2022-08-19T00:52:30.047Z,25.66
2022-08-19T00:54:57.375Z,25.65
2022-08-19T00:57:24.437Z,25.65
2022-08-19T00:59:56.491Z,25.62
2022-08-19T01:02:29.119Z,25.62
2022-08-19T01:04:56.162Z,25.63
2022-08-19T01:07:23.246Z,25.62
2022-08-19T01:09:51.519Z,25.61
2022-08-19T01:12:18.619Z,25.60
2022-08-19T01:14:45.658Z,25.58
2022-08-19T01:17:12.704Z,25.59
2022-08-19T01:19:43.640Z,25.60
2022-08-19T01:22:14.359Z,25.59
2022-08-19T01:24:49.873Z,25.57
2022-08-19T01:27:17.829Z,25.57
2022-08-19T01:29:45.762Z,25.57
2022-08-19T01:32:33.533Z,25.57
2022-08-19T01:35:02.521Z,25.56
2022-08-19T01:37:30.421Z,25.55
2022-08-19T01:39:57.548Z,25.55
2022-08-19T01:42:30.298Z,25.57
2022-08-19T01:44:57.798Z,25.54
2022-08-19T01:47:25.152Z,25.54
2022-08-19T01:49:52.239Z,25.53
2022-08-19T01:52:19.279Z,25.54
2022-08-19T01:54:46.320Z,25.53
2022-08-19T01:57:13.355Z,25.50
2022-08-19T01:59:40.439Z,25.51
2022-08-19T02:02:09.786Z,25.51
2022-08-19T02:04:38.658Z,25.51
2022-08-19T02:07:05.701Z,25.51
2022-08-19T02:09:32.749Z,25.50
2022-08-19T02:11:59.808Z,25.48
2022-08-19T02:14:26.850Z,25.49
2022-08-19T02:16:53.898Z,25.49
2022-08-19T02:19:20.950Z,25.49
2022-08-19T02:21:48.063Z,25.47
2022-08-19T02:24:15.169Z,25.48
2022-08-19T02:26:42.240Z,25.47
2022-08-19T02:29:09.310Z,25.47
2022-08-19T02:31:36.901Z,25.47
2022-08-19T02:34:03.945Z,25.47
2022-08-19T02:36:31.325Z,25.48
2022-08-19T02:38:58.370Z,25.46
2022-08-19T02:41:26.919Z,25.46
2022-08-19T02:44:26.856Z,25.45
2022-08-19T02:46:41.422Z,25.44
2022-08-19T02:49:08.490Z,25.44
2022-08-19T02:51:35.535Z,25.43
2022-08-19T02:54:02.599Z,25.43
2022-08-19T02:56:29.643Z,25.41
2022-08-19T02:58:56.734Z,25.43
2022-08-19T03:01:23.833Z,25.41
2022-08-19T03:03:51.904Z,25.43
2022-08-19T03:06:19.334Z,25.43
2022-08-19T03:08:46.838Z,25.43
2022-08-19T03:11:13.898Z,25.42
2022-08-19T03:13:40.982Z,25.41
2022-08-19T03:16:08.102Z,25.39
2022-08-19T03:18:35.148Z,25.40
2022-08-19T03:21:02.367Z,25.40
2022-08-19T03:23:29.408Z,25.40
2022-08-19T03:25:58.346Z,25.39
2022-08-19T03:28:32.735Z,25.38
2022-08-19T03:31:00.102Z,25.38
2022-08-19T03:33:28.800Z,25.38
2022-08-19T03:35:55.864Z,25.38
2022-08-19T03:38:22.890Z,25.39
2022-08-19T03:40:49.930Z,25.37
2022-08-19T03:43:18.753Z,25.35
2022-08-19T03:45:45.808Z,25.33
2022-08-19T03:48:12.926Z,25.34
2022-08-19T03:50:39.967Z,25.36
2022-08-19T03:53:09.890Z,25.35
2022-08-19T03:55:36.996Z,25.35
2022-08-19T03:58:04.078Z,25.35
2022-08-19T04:00:31.133Z,25.35
2022-08-19T04:03:00.611Z,25.36
2022-08-19T04:05:29.419Z,25.34
2022-08-19T04:08:00.453Z,25.32
2022-08-19T04:10:27.760Z,25.31
2022-08-19T04:12:54.846Z,25.30
2022-08-19T04:15:21.957Z,25.31
2022-08-19T04:17:48.998Z,25.30
2022-08-19T04:20:16.053Z,25.31
2022-08-19T04:22:43.096Z,25.32
2022-08-19T04:25:10.142Z,25.31
2022-08-19T04:27:37.195Z,25.31
2022-08-19T04:30:04.238Z,25.31
2022-08-19T04:32:32.979Z,25.31
2022-08-19T04:35:02.789Z,25.31
2022-08-19T04:37:44.831Z,25.29
2022-08-19T04:40:30.753Z,25.28
2022-08-19T04:42:57.883Z,25.29
2022-08-19T04:45:24.935Z,25.29
2022-08-19T04:47:58.326Z,25.29
2022-08-19T04:50:26.243Z,25.29
2022-08-19T04:52:54.283Z,25.28
2022-08-19T04:55:21.611Z,25.28
2022-08-19T04:57:48.658Z,25.26
2022-08-19T05:00:15.779Z,25.26
2022-08-19T05:02:42.845Z,25.26
2022-08-19T05:05:09.956Z,25.26
2022-08-19T05:07:37.053Z,25.27
2022-08-19T05:10:04.086Z,25.25
2022-08-19T05:12:31.189Z,25.26
2022-08-19T05:14:58.388Z,25.25
2022-08-19T05:17:28.781Z,25.24
2022-08-19T05:20:15.321Z,25.25
2022-08-19T05:22:42.409Z,25.25
2022-08-19T05:25:12.931Z,25.24
2022-08-19T05:27:40.525Z,25.24
2022-08-19T05:30:07.573Z,25.25
2022-08-19T05:32:34.683Z,25.25
2022-08-19T05:35:01.732Z,25.24
2022-08-19T05:37:28.859Z,25.24
2022-08-19T05:39:56.012Z,25.24
2022-08-19T05:42:24.195Z,25.23
2022-08-19T05:44:51.440Z,25.23
2022-08-19T05:47:20.681Z,25.22
2022-08-19T05:49:47.977Z,25.23
2022-08-19T05:52:16.467Z,25.23
2022-08-19T05:54:51.306Z,25.23
2022-08-19T05:57:18.686Z,25.23
2022-08-19T05:59:52.741Z,25.23
2022-08-19T06:02:22.022Z,25.23
2022-08-19T06:04:49.093Z,25.23
2022-08-19T06:07:16.403Z,25.23
2022-08-19T06:09:49.092Z,25.23
2022-08-19T06:12:31.585Z,25.21
2022-08-19T06:15:01.188Z,25.23
2022-08-19T06:17:28.828Z,25.21
2022-08-19T06:19:55.875Z,25.21
2022-08-19T06:22:22.920Z,25.19
2022-08-19T06:24:53.638Z,25.23
2022-08-19T06:27:21.094Z,25.22
2022-08-19T06:29:48.183Z,25.22
2022-08-19T06:32:15.768Z,25.21
2022-08-19T06:34:43.000Z,25.21
2022-08-19T06:37:10.065Z,25.22
2022-08-19T06:39:37.209Z,25.24
2022-08-19T06:42:04.870Z,25.23
2022-08-19T06:44:35.343Z,25.20
2022-08-19T06:47:14.375Z,25.21
2022-08-19T06:49:42.050Z,25.20
2022-08-19T06:52:09.127Z,25.21
2022-08-19T06:54:55.465Z,25.20
2022-08-19T06:57:23.754Z,25.22
2022-08-19T06:59:50.828Z,25.22
2022-08-19T07:04:46.018Z,25.36
2022-08-19T07:07:21.408Z,25.41
2022-08-19T07:09:55.366Z,25.50
2022-08-19T07:12:27.189Z,25.53
2022-08-19T07:14:54.620Z,25.55
2022-08-19T07:17:21.815Z,25.56
2022-08-19T07:19:49.239Z,25.59
2022-08-19T07:22:17.326Z,25.61
2022-08-19T07:24:51.088Z,25.64
2022-08-19T07:27:18.587Z,25.64
2022-08-19T07:29:55.736Z,25.64
2022-08-19T07:32:23.540Z,25.58
2022-08-19T07:34:50.611Z,25.49
2022-08-19T07:37:19.255Z,25.45
2022-08-19T07:39:46.395Z,25.44
2022-08-19T07:42:14.661Z,25.45
2022-08-19T07:44:41.842Z,25.44
2022-08-19T07:47:47.131Z,25.43
2022-08-19T07:49:56.123Z,25.43
2022-08-19T07:52:23.414Z,25.41
2022-08-19T07:54:50.921Z,25.40
2022-08-19T07:57:18.032Z,25.39
2022-08-19T07:59:45.114Z,25.39
2022-08-19T08:02:12.205Z,25.38
2022-08-19T08:04:57.874Z,25.37
2022-08-19T08:07:46.420Z,25.38
2022-08-19T08:10:21.149Z,25.36
2022-08-19T08:13:08.559Z,25.35
2022-08-19T08:15:38.703Z,25.35
2022-08-19T08:18:09.093Z,25.35
2022-08-19T08:20:36.252Z,25.33
2022-08-19T08:23:22.301Z,25.35
2022-08-19T08:25:49.991Z,25.33
2022-08-19T08:28:17.668Z,25.34
2022-08-19T08:30:46.733Z,25.32
2022-08-19T08:33:17.316Z,25.32
2022-08-19T08:36:01.366Z,25.34
2022-08-19T08:38:38.748Z,25.34
2022-08-19T08:41:07.406Z,25.35
2022-08-19T08:43:34.479Z,25.35
2022-08-19T08:46:01.578Z,25.35
2022-08-19T08:48:28.637Z,25.35
2022-08-19T08:50:55.728Z,25.35
2022-08-19T08:53:29.806Z,25.36
2022-08-19T08:55:58.850Z,25.37
2022-08-19T08:58:25.904Z,25.36
2022-08-19T09:00:52.968Z,25.35
2022-08-19T09:03:20.242Z,25.36
2022-08-19T09:05:50.199Z,25.38
2022-08-19T09:08:19.303Z,25.38
2022-08-19T09:10:46.420Z,25.38
2022-08-19T09:13:13.518Z,25.38
2022-08-19T09:15:40.655Z,25.38
2022-08-19T09:18:07.797Z,25.39
2022-08-19T09:20:34.908Z,25.39
2022-08-19T09:23:02.340Z,25.38
2022-08-19T09:25:29.829Z,25.37
2022-08-19T09:28:02.559Z,25.39
2022-08-19T09:30:31.342Z,25.38
2022-08-19T09:32:58.592Z,25.37
2022-08-19T09:35:25.686Z,25.38
2022-08-19T09:37:57.565Z,25.38
2022-08-19T09:40:26.708Z,25.38
2022-08-19T09:42:54.204Z,25.37
2022-08-19T09:45:24.429Z,25.40
2022-08-19T09:47:53.860Z,25.50
2022-08-19T09:50:21.843Z,25.57
2022-08-19T09:52:56.967Z,25.61
2022-08-19T09:55:24.756Z,25.65
2022-08-19T09:57:59.218Z,25.70
2022-08-19T10:00:26.268Z,25.72
2022-08-19T10:02:53.351Z,25.78
2022-08-19T10:05:42.227Z,25.80
2022-08-19T10:08:13.118Z,25.81
2022-08-19T10:10:43.263Z,25.83
2022-08-19T10:13:11.347Z,25.85
2022-08-19T10:15:47.548Z,25.86
2022-08-19T10:18:15.636Z,25.88
2022-08-19T10:20:43.443Z,25.89
2022-08-19T10:23:10.552Z,25.90
2022-08-19T10:25:38.575Z,25.91
2022-08-19T10:28:06.920Z,25.94
2022-08-19T10:30:38.021Z,25.97
2022-08-19T10:33:08.554Z,25.97
2022-08-19T10:35:42.671Z,25.95
2022-08-19T10:38:32.427Z,25.98
2022-08-19T10:41:00.133Z,25.98
2022-08-19T10:43:27.222Z,25.97
2022-08-19T10:45:56.458Z,25.99
2022-08-19T10:48:23.553Z,26.01
2022-08-19T10:51:09.239Z,26.03
2022-08-19T10:53:36.366Z,26.02
2022-08-19T10:56:22.399Z,26.05
2022-08-19T10:58:49.963Z,26.09
2022-08-19T11:01:17.122Z,26.10
2022-08-19T11:03:46.469Z,26.11
2022-08-19T11:06:13.562Z,26.13
2022-08-19T11:08:41.190Z,26.12
2022-08-19T11:11:08.361Z,26.10
2022-08-19T11:13:38.198Z,26.12
2022-08-19T11:16:07.645Z,26.12
2022-08-19T11:18:37.390Z,26.12
2022-08-19T11:21:04.483Z,26.10
2022-08-19T11:23:31.526Z,26.11
2022-08-19T11:26:00.635Z,26.13
2022-08-19T11:28:27.747Z,26.13
2022-08-19T11:30:54.823Z,26.12
2022-08-19T11:33:21.907Z,26.10
2022-08-19T11:35:50.293Z,26.11
2022-08-19T11:38:17.380Z,26.11
2022-08-19T11:40:44.950Z,26.10
2022-08-19T11:43:11.998Z,26.14
2022-08-19T11:45:39.035Z,26.12
2022-08-19T11:48:06.091Z,26.13
2022-08-19T11:50:33.189Z,26.14
2022-08-19T11:53:01.176Z,26.15
2022-08-19T11:55:28.313Z,26.17
2022-08-19T11:57:55.499Z,26.19
2022-08-19T12:00:22.748Z,26.08
2022-08-19T12:02:49.792Z,25.84
2022-08-19T12:05:16.881Z,25.67
2022-08-19T12:07:44.774Z,25.57
2022-08-19T12:10:11.855Z,25.56
2022-08-19T12:12:43.626Z,25.59
2022-08-19T12:15:11.988Z,25.57
2022-08-19T12:17:39.124Z,25.40
2022-08-19T12:20:06.805Z,25.31
2022-08-19T12:22:33.863Z,25.18
2022-08-19T12:25:01.838Z,25.17
2022-08-19T12:27:40.154Z,25.21
2022-08-19T12:30:08.484Z,25.08
2022-08-19T12:32:35.562Z,25.03
2022-08-19T12:35:02.631Z,24.98
2022-08-19T12:37:31.062Z,24.99
2022-08-19T12:39:58.182Z,24.95
2022-08-19T12:42:25.336Z,24.98
2022-08-19T12:44:52.812Z,24.95
2022-08-19T12:47:19.944Z,24.92
2022-08-19T12:49:54.622Z,24.77
2022-08-19T12:52:22.954Z,24.67
2022-08-19T12:54:54.620Z,24.88
2022-08-19T12:57:22.045Z,25.23
2022-08-19T12:59:50.808Z,25.38
2022-08-19T13:02:17.853Z,25.50
2022-08-19T13:04:44.901Z,25.58
2022-08-19T13:07:12.001Z,25.62
2022-08-19T13:09:41.169Z,25.68
2022-08-19T13:12:08.814Z,25.72
2022-08-19T13:14:35.881Z,25.75
2022-08-19T13:17:03.931Z,25.76
2022-08-19T13:19:32.552Z,25.80
2022-08-19T13:22:00.427Z,25.77
2022-08-19T13:24:27.733Z,25.77
2022-08-19T13:27:00.619Z,25.80
2022-08-19T13:29:46.537Z,25.83
2022-08-19T13:32:32.202Z,25.88
2022-08-19T13:34:59.275Z,25.85
2022-08-19T13:37:44.914Z,25.84
2022-08-19T13:40:17.198Z,25.81
2022-08-19T13:42:48.434Z,25.85
2022-08-19T13:45:16.243Z,25.87
2022-08-19T13:47:45.121Z,25.88
2022-08-19T13:50:12.194Z,25.90
2022-08-19T13:52:39.288Z,25.89
2022-08-19T13:55:06.423Z,25.90
2022-08-19T13:57:33.468Z,25.93
2022-08-19T14:00:00.579Z,25.93
2022-08-19T14:02:27.619Z,25.95
2022-08-19T14:04:54.687Z,25.96
2022-08-19T14:07:24.507Z,25.93
2022-08-19T14:09:51.593Z,25.95
2022-08-19T14:12:18.665Z,25.96
2022-08-19T14:14:56.004Z,25.98
2022-08-19T14:17:23.049Z,25.95
2022-08-19T14:19:50.106Z,25.95
2022-08-19T14:22:22.123Z,25.94
2022-08-19T14:24:51.187Z,25.95
2022-08-19T14:27:18.283Z,25.95
2022-08-19T14:29:46.536Z,25.96
2022-08-19T14:32:16.960Z,25.98
2022-08-19T14:34:46.699Z,25.97
2022-08-19T14:37:15.417Z,25.96
2022-08-19T14:39:42.579Z,25.95
2022-08-19T14:42:11.416Z,25.97
2022-08-19T14:44:38.819Z,25.97
2022-08-19T14:47:07.944Z,25.98
2022-08-19T14:49:41.225Z,25.99
2022-08-19T14:52:10.087Z,26.01
2022-08-19T14:54:37.132Z,25.99
2022-08-19T14:57:04.171Z,25.98
2022-08-19T14:59:31.239Z,25.98
2022-08-19T15:01:58.386Z,25.98
2022-08-19T15:04:45.355Z,25.97
2022-08-19T15:07:12.477Z,25.96
2022-08-19T15:09:39.619Z,25.96
2022-08-19T15:12:06.729Z,26.01
2022-08-19T15:14:35.854Z,26.01
2022-08-19T15:17:04.167Z,25.98
2022-08-19T15:19:31.219Z,26.00
2022-08-19T15:21:58.311Z,26.03
2022-08-19T15:24:26.191Z,25.96
2022-08-19T15:26:53.442Z,25.95
2022-08-19T15:29:20.574Z,25.97
2022-08-19T15:31:47.683Z,26.01
2022-08-19T15:34:16.217Z,26.02
2022-08-19T15:36:43.335Z,26.00
2022-08-19T15:39:11.052Z,25.96
2022-08-19T15:41:39.526Z,25.98
2022-08-19T15:44:10.243Z,25.98
2022-08-19T15:46:37.888Z,26.01
2022-08-19T15:49:04.927Z,26.01
2022-08-19T15:51:32.069Z,26.04
2022-08-19T15:53:59.321Z,26.06
2022-08-19T15:56:27.506Z,26.04
2022-08-19T15:59:13.295Z,26.01
2022-08-19T16:01:58.850Z,26.08
2022-08-19T16:04:44.794Z,26.14
2022-08-19T16:07:12.727Z,26.13
2022-08-19T16:09:39.791Z,26.16
2022-08-19T16:12:06.842Z,26.12
2022-08-19T16:14:34.030Z,26.15
2022-08-19T16:17:01.962Z,26.15
2022-08-19T16:19:29.011Z,26.17
2022-08-19T16:21:56.063Z,26.16
2022-08-19T16:24:23.115Z,26.15
2022-08-19T16:26:50.175Z,25.99
2022-08-19T16:29:27.730Z,25.83
2022-08-19T16:32:02.786Z,25.87
2022-08-19T16:34:30.110Z,26.04
2022-08-19T16:36:57.149Z,26.11
2022-08-19T16:39:24.251Z,26.17
2022-08-19T16:41:51.632Z,26.22
2022-08-19T16:44:21.074Z,26.29
2022-08-19T16:46:55.717Z,26.34
2022-08-19T16:49:54.573Z,26.35
2022-08-19T16:52:14.848Z,26.33
2022-08-19T16:54:43.577Z,26.36
2022-08-19T16:57:12.008Z,26.38
2022-08-19T16:59:43.694Z,26.39
2022-08-19T17:02:16.185Z,26.43
2022-08-19T17:04:43.239Z,26.45
2022-08-19T17:07:10.408Z,26.48
2022-08-19T17:09:37.958Z,26.46
2022-08-19T17:12:05.159Z,26.47
2022-08-19T17:14:32.222Z,26.47
2022-08-19T17:16:59.254Z,26.53
2022-08-19T17:19:28.364Z,26.56
2022-08-19T17:21:57.762Z,26.56
2022-08-19T17:24:24.802Z,26.56
2022-08-19T17:26:52.194Z,26.58
2022-08-19T17:29:19.273Z,26.57
2022-08-19T17:31:47.552Z,26.44
2022-08-19T17:34:14.699Z,26.45
2022-08-19T17:36:41.739Z,26.50
2022-08-19T17:39:08.778Z,26.52
2022-08-19T17:41:35.866Z,26.51
2022-08-19T17:44:02.939Z,26.52
2022-08-19T17:46:30.457Z,26.36
2022-08-19T17:48:57.864Z,26.39
2022-08-19T17:51:25.172Z,26.37
2022-08-19T17:53:52.278Z,26.35
2022-08-19T17:56:19.319Z,26.33
2022-08-19T17:58:57.945Z,26.35
2022-08-19T18:01:27.558Z,26.34
2022-08-19T18:04:01.863Z,26.35
2022-08-19T18:06:28.902Z,26.32
2022-08-19T18:08:56.669Z,26.29
2022-08-19T18:11:23.706Z,26.26
2022-08-19T18:13:50.734Z,26.27
2022-08-19T18:16:18.840Z,26.32
2022-08-19T18:18:45.898Z,26.33
2022-08-19T18:21:12.982Z,26.33
2022-08-19T18:23:44.242Z,26.34
2022-08-19T18:26:12.756Z,26.32
2022-08-19T18:28:43.270Z,26.26
2022-08-19T18:31:17.279Z,26.28
2022-08-19T18:33:44.621Z,26.27
2022-08-19T18:36:12.036Z,26.29
2022-08-19T18:38:58.073Z,26.27
2022-08-19T18:41:43.815Z,26.27
2022-08-19T18:44:29.289Z,26.26
2022-08-19T18:47:14.975Z,26.28
2022-08-19T18:49:42.270Z,26.26
2022-08-19T18:52:09.385Z,26.27
2022-08-19T18:54:36.917Z,26.28
2022-08-19T18:57:05.724Z,26.23
2022-08-19T18:59:32.920Z,26.21
2022-08-19T19:02:00.010Z,26.25
2022-08-19T19:04:27.224Z,26.24
2022-08-19T19:06:54.323Z,26.21
2022-08-19T19:09:21.414Z,26.15
2022-08-19T19:11:48.464Z,26.15
2022-08-19T19:14:27.705Z,26.13
2022-08-19T19:17:02.875Z,26.15
2022-08-19T19:19:29.911Z,26.10
2022-08-19T19:21:58.487Z,26.09
2022-08-19T19:24:25.771Z,26.06
2022-08-19T19:26:52.905Z,26.06
2022-08-19T19:29:19.965Z,26.02
2022-08-19T19:31:47.004Z,26.02
2022-08-19T19:34:28.904Z,26.01
2022-08-19T19:36:57.019Z,25.99
2022-08-19T19:39:30.538Z,26.01
2022-08-19T19:42:12.638Z,26.01
2022-08-19T19:44:48.154Z,26.00
2022-08-19T19:47:15.693Z,26.00
2022-08-19T19:50:03.839Z,25.97
2022-08-19T19:52:31.345Z,25.96
2022-08-19T19:54:58.386Z,25.94
2022-08-19T19:57:26.750Z,25.92
2022-08-19T19:59:54.301Z,25.89
2022-08-19T20:02:22.078Z,25.89
2022-08-19T20:04:51.226Z,25.88
2022-08-19T20:07:18.258Z,25.89
2022-08-19T20:09:59.279Z,25.88
2022-08-19T20:12:27.255Z,25.84
2022-08-19T20:14:54.291Z,25.84
2022-08-19T20:17:21.340Z,25.83
2022-08-19T20:19:48.396Z,25.82
2022-08-19T20:22:15.621Z,25.82
2022-08-19T20:24:42.823Z,25.79
2022-08-19T20:27:10.792Z,25.80
2022-08-19T20:29:41.655Z,25.79
2022-08-19T20:32:11.513Z,25.79
2022-08-19T20:34:39.198Z,25.81
2022-08-19T20:37:09.335Z,25.82
2022-08-19T20:39:36.728Z,25.79
2022-08-19T20:42:03.818Z,25.80
2022-08-19T20:44:30.866Z,25.79
2022-08-19T20:47:02.957Z,25.75
2022-08-19T20:49:30.816Z,25.74
2022-08-19T20:51:58.513Z,25.72
2022-08-19T20:54:25.804Z,25.72
2022-08-19T20:56:52.978Z,25.73
2022-08-19T20:59:20.468Z,25.73
2022-08-19T21:01:47.568Z,25.71
2022-08-19T21:04:14.691Z,25.71
2022-08-19T21:06:45.271Z,25.72
2022-08-19T21:09:13.612Z,25.72
2022-08-19T21:11:40.671Z,25.71
2022-08-19T21:14:07.764Z,25.73
2022-08-19T21:16:34.942Z,25.73
2022-08-19T21:19:02.015Z,25.70
2022-08-19T21:21:29.134Z,25.67
2022-08-19T21:23:56.201Z,25.68
2022-08-19T21:26:24.378Z,25.70
2022-08-19T21:28:51.505Z,25.67
2022-08-19T21:31:18.611Z,25.66
2022-08-19T21:33:45.646Z,25.70
2022-08-19T21:36:12.762Z,25.70
2022-08-19T21:38:39.881Z,25.70
2022-08-19T21:41:06.955Z,25.67
2022-08-19T21:43:34.019Z,25.61
2022-08-19T21:46:01.411Z,25.62
2022-08-19T21:48:28.533Z,25.61
2022-08-19T21:50:55.595Z,25.61
2022-08-19T21:53:22.763Z,25.61
2022-08-19T21:55:53.399Z,25.61
2022-08-19T21:58:28.381Z,25.62
2022-08-19T22:00:57.814Z,25.60
2022-08-19T22:03:25.880Z,25.56
2022-08-19T22:05:53.019Z,25.60
2022-08-19T22:08:20.115Z,25.58
2022-08-19T22:10:49.084Z,25.61
2022-08-19T22:13:18.128Z,25.65
2022-08-19T22:15:45.209Z,25.61
2022-08-19T22:18:13.666Z,25.58
2022-08-19T22:20:40.724Z,25.60
2022-08-19T22:23:07.956Z,25.59
2022-08-19T22:25:35.501Z,25.58
2022-08-19T22:28:02.554Z,25.59
2022-08-19T22:30:32.389Z,25.57
2022-08-19T22:33:01.348Z,25.55
2022-08-19T22:35:31.513Z,25.56
2022-08-19T22:37:58.983Z,25.54
2022-08-19T22:40:26.053Z,25.56
2022-08-19T22:42:53.900Z,25.55
2022-08-19T22:45:21.627Z,25.53
2022-08-19T22:47:48.684Z,25.56
2022-08-19T22:50:15.778Z,25.55
2022-08-19T22:52:51.994Z,25.54
2022-08-19T22:55:19.591Z,25.53
2022-08-19T22:57:46.626Z,25.54
2022-08-19T23:00:14.700Z,25.53
2022-08-19T23:02:52.337Z,25.52
2022-08-19T23:05:22.148Z,25.52
2022-08-19T23:07:52.733Z,25.53
2022-08-19T23:10:27.152Z,25.51
2022-08-19T23:12:54.950Z,25.53
2022-08-19T23:15:25.782Z,25.50
2022-08-19T23:17:53.256Z,25.49
2022-08-19T23:20:20.319Z,25.50
2022-08-19T23:22:52.598Z,25.48
2022-08-19T23:25:19.640Z,25.47
2022-08-19T23:28:05.264Z,25.50
2022-08-19T23:30:32.268Z,25.47
2022-08-19T23:32:59.540Z,25.49
2022-08-19T23:35:26.620Z,25.49
2022-08-19T23:37:53.656Z,25.49
2022-08-19T23:40:21.877Z,25.49
2022-08-19T23:42:48.960Z,25.49
2022-08-19T23:45:16.008Z,25.47
2022-08-19T23:47:50.812Z,25.46
2022-08-19T23:50:20.220Z,25.46
2022-08-19T23:52:47.282Z,25.47
2022-08-19T23:55:14.377Z,25.44
2022-08-19T23:57:41.440Z,25.47
